Date,TemperatureHighF,TemperatureAvgF,TemperatureLowF,DewpointHighF,DewpointAvgF,DewpointLowF,HumidityHigh,HumidityAvg,HumidityLow,PressureMaxIn,PressureMinIn,WindSpeedMaxMPH,WindSpeedAvgMPH,GustSpeedMaxMPH,PrecipitationSumIn
2013-1-1,14.0,9.5,6.0,7.0,2.4,-1.0,84,73,62,0.00,40.00,34,22,40,0.00
2013-1-2,15.0,11.5,4.0,8.0,4.0,-4.0,87,72,55,0.00,40.00,26,18,31,0.00
2013-1-3,25.0,12.6,4.0,2.0,-2.6,-5.0,70,51,35,0.00,40.00,29,21,34,0.00
2013-1-4,28.0,19.5,16.0,8.0,0.1,-3.0,48,42,38,0.00,40.00,19,15,21,0.00
2013-1-7,32.0,28.5,23.0,32.0,1.4,-2.0,37,29,23,0.00,40.00,34,15,40,0.00
2013-1-8,30.0,27.3,24.0,17.0,13.0,4.0,67,55,34,0.00,40.00,40,27,50,0.00
2013-1-9,46.0,34.4,21.0,17.0,12.2,5.0,77,42,23,0.00,40.00,31,15,35,0.00
2013-1-10,46.0,38.2,26.0,10.0,4.4,-4.0,47,25,12,0.00,40.00,23,11,30,0.00
2013-1-11,31.0,16.1,7.0,21.0,6.1,-3.0,98,67,30,0.00,40.00,35,19,42,0.07
2013-1-12,32.0,0.8,-8.0,32.0,-4.6,-12.0,88,77,56,0.00,40.00,16,7,19,0.00
2013-1-13,7.0,-2.1,-9.0,0.0,-6.4,-12.0,88,82,51,0.00,40.00,9,5,11,0.00
2013-1-14,32.0,-3.3,-13.0,32.0,-11.9,-17.0,86,67,46,0.00,40.00,30,11,38,0.00
2013-1-15,18.0,8.3,-1.0,10.0,-0.6,-13.0,75,66,53,0.00,40.00,36,30,43,0.00
2013-1-16,34.0,22.6,17.0,20.0,13.8,9.0,79,69,55,0.00,40.00,38,25,44,0.00
2013-1-17,41.0,26.6,17.0,14.0,9.7,5.0,71,50,29,0.00,40.00,25,13,29,0.00
2013-1-18,40.0,32.1,28.0,32.0,5.5,3.0,38,31,25,0.00,40.00,35,24,42,0.00
2013-1-19,43.0,34.3,25.0,6.0,2.0,-2.0,36,26,17,0.00,40.00,39,20,46,0.00
2013-1-20,40.0,28.0,18.0,32.0,7.1,0.0,70,42,20,0.00,40.00,24,10,30,0.00
2013-1-21,40.0,32.2,25.0,9.0,5.9,1.0,46,33,26,0.00,40.00,39,28,49,0.00
2013-1-22,47.0,39.2,32.0,2.0,-3.6,-10.0,27,16,11,0.00,40.00,40,29,49,0.00
2013-1-23,53.0,43.1,32.0,32.0,-1.9,-11.0,20,14,11,0.00,40.00,30,19,36,0.00
2013-1-24,43.0,37.2,32.0,32.0,16.6,-2.0,73,48,15,0.00,40.00,40,24,47,0.00
2013-1-25,46.0,38.1,32.0,27.0,25.0,24.0,78,60,43,0.00,40.00,29,19,35,0.00
2013-1-26,43.0,37.5,31.0,27.0,24.8,24.0,79,61,46,0.00,40.00,19,7,24,0.00
2013-1-27,46.0,36.5,28.0,28.0,21.5,14.0,87,57,29,0.00,40.00,26,12,31,0.00
2013-1-28,36.0,25.2,13.0,28.0,16.6,4.0,97,71,50,0.00,40.00,26,13,32,0.04
2013-1-29,21.0,13.2,7.0,5.0,1.3,-6.0,83,60,31,0.00,40.00,30,18,35,0.00
2013-1-30,32.0,18.9,6.0,32.0,12.7,-1.0,93,76,61,0.00,40.00,40,26,49,0.06
2013-1-31,32.0,27.9,23.0,19.0,16.4,14.0,85,62,51,0.00,40.00,37,26,42,0.00
2013-2-1,32.0,26.6,23.0,25.0,18.9,15.0,96,73,56,0.00,40.00,39,22,47,0.13
2013-2-2,41.0,31.2,24.0,17.0,10.9,4.0,71,45,27,0.00,40.00,42,23,50,0.00
2013-2-3,43.0,33.4,24.0,5.0,1.3,-4.0,41,26,13,0.00,40.00,35,21,41,0.00
2013-2-4,41.0,32.2,23.0,32.0,8.2,2.0,50,36,25,0.00,40.00,40,26,50,0.00
2013-2-5,45.0,36.4,28.0,20.0,16.9,13.0,61,45,34,0.00,40.00,40,18,45,0.00
2013-2-6,40.0,32.0,19.0,32.0,16.9,9.0,92,54,36,0.00,40.00,22,12,27,0.00
2013-2-7,40.0,26.4,16.0,18.0,7.4,-12.0,95,50,10,0.00,40.00,26,13,29,0.00
2013-2-8,41.0,31.4,22.0,14.0,5.4,-3.0,59,35,16,0.00,40.00,18,7,22,0.00
2013-2-9,27.0,20.3,16.0,24.0,14.9,10.0,97,80,60,0.00,40.00,17,11,23,0.04
2013-2-10,18.0,14.0,6.0,14.0,9.4,2.0,90,82,67,0.00,40.00,22,13,29,0.00
2013-2-11,12.0,5.7,1.0,6.0,-1.0,-3.0,90,74,50,0.00,40.00,21,10,24,0.00
2013-2-12,21.0,13.3,9.0,7.0,1.3,-4.0,63,58,52,0.00,40.00,35,27,42,0.00
2013-2-13,33.0,24.9,18.0,32.0,13.0,7.0,72,60,47,0.00,40.00,49,29,55,0.00
2013-2-14,25.0,17.4,13.0,20.0,12.7,8.0,96,82,65,0.00,40.00,39,17,45,0.31
2013-2-15,24.0,18.4,7.0,14.0,10.9,4.0,93,73,58,0.00,40.00,33,19,41,0.00
2013-2-16,42.0,31.4,24.0,17.0,12.2,8.0,65,46,31,0.00,40.00,44,30,51,0.00
2013-2-17,44.0,31.4,19.0,32.0,5.9,-2.0,81,38,15,0.00,40.00,34,21,42,0.00
2013-2-18,32.0,18.2,11.0,32.0,7.8,-1.0,94,65,32,0.00,40.00,34,16,40,0.00
2013-2-19,30.0,20.0,10.0,11.0,7.1,0.0,91,60,31,0.00,40.00,18,10,23,0.00
2013-2-20,39.0,20.5,9.0,17.0,12.2,4.0,98,74,23,0.00,40.00,16,7,23,0.00
2013-2-21,18.0,14.1,11.0,18.0,12.5,8.0,96,94,84,0.00,40.00,21,6,23,0.22
2013-2-22,24.0,17.1,13.0,14.0,7.9,4.0,84,67,53,0.00,40.00,35,18,43,0.00
2013-2-23,34.0,23.6,16.0,20.0,11.8,4.0,97,62,42,0.00,40.00,38,18,49,0.02
2013-2-24,20.0,15.3,9.0,20.0,13.7,4.0,98,93,78,0.00,40.00,29,14,35,0.32
2013-2-25,26.0,16.0,7.0,13.0,6.5,2.0,82,67,48,0.00,40.00,31,21,38,0.00
2013-2-26,23.0,18.4,13.0,16.0,12.0,7.0,93,77,51,0.00,40.00,31,19,38,0.03
2013-2-27,21.0,13.5,6.0,11.0,5.7,1.0,86,71,59,0.00,40.00,27,17,32,0.00
2013-2-28,26.0,19.6,13.0,15.0,10.9,2.0,78,68,58,0.00,40.00,34,27,39,0.00
2013-3-1,38.0,29.6,21.0,25.0,19.4,9.0,78,66,50,0.00,40.00,33,22,41,0.00
2013-3-2,47.0,38.1,31.0,24.0,21.6,18.0,74,53,37,0.00,40.00,35,18,41,0.00
2013-3-3,46.0,37.2,33.0,26.0,22.0,14.0,75,55,35,0.00,40.00,37,21,45,0.00
2013-3-4,34.0,21.5,14.0,23.0,15.6,7.0,98,80,54,0.00,40.00,34,17,45,0.11